sensor_id;sensor_type;location;lat;lon;timestamp;P1;durP1;ratioP1;P2;durP2;ratioP2
50367;SDS011;36281;34.132;-118.018;2023-03-14T00:01:21;5.75;;;4.10;;
50367;SDS011;36281;34.132;-118.018;2023-03-14T00:03:51;6.57;;;4.20;;
50367;SDS011;36281;34.132;-118.018;2023-03-14T00:06:20;9.18;;;3.85;;
50367;SDS011;36281;34.132;-118.018;2023-03-14T00:08:51;6.43;;;3.70;;
50367;SDS011;36281;34.132;-118.018;2023-03-14T00:11:21;6.28;;;4.07;;
50367;SDS011;36281;34.132;-118.018;2023-03-14T00:13:50;5.70;;;3.90;;
50367;SDS011;36281;34.132;-118.018;2023-03-14T00:16:20;7.22;;;4.20;;
50367;SDS011;36281;34.132;-118.018;2023-03-14T00:18:49;9.50;;;4.57;;
50367;SDS011;36281;34.132;-118.018;2023-03-14T00:21:18;7.25;;;4.05;;
50367;SDS011;36281;34.132;-118.018;2023-03-14T00:23:49;4.47;;;3.28;;
50367;SDS011;36281;34.132;-118.018;2023-03-14T00:26:18;7.57;;;4.15;;
50367;SDS011;36281;34.132;-118.018;2023-03-14T00:28:51;8.20;;;4.20;;
50367;SDS011;36281;34.132;-118.018;2023-03-14T00:31:20;6.82;;;4.10;;
50367;SDS011;36281;34.132;-118.018;2023-03-14T00:33:50;6.43;;;4.13;;
50367;SDS011;36281;34.132;-118.018;2023-03-14T00:36:20;10.60;;;4.60;;
50367;SDS011;36281;34.132;-118.018;2023-03-14T00:38:51;6.55;;;3.92;;
50367;SDS011;36281;34.132;-118.018;2023-03-14T00:41:21;6.97;;;4.13;;
50367;SDS011;36281;34.132;-118.018;2023-03-14T00:43:50;7.63;;;4.63;;
50367;SDS011;36281;34.132;-118.018;2023-03-14T00:46:20;10.52;;;4.88;;
50367;SDS011;36281;34.132;-118.018;2023-03-14T00:48:49;8.07;;;4.40;;
50367;SDS011;36281;34.132;-118.018;2023-03-14T00:51:18;8.43;;;4.88;;
50367;SDS011;36281;34.132;-118.018;2023-03-14T00:53:47;9.43;;;4.78;;
50367;SDS011;36281;34.132;-118.018;2023-03-14T00:56:18;9.93;;;4.20;;
50367;SDS011;36281;34.132;-118.018;2023-03-14T00:58:47;8.90;;;4.70;;
50367;SDS011;36281;34.132;-118.018;2023-03-14T01:01:17;7.45;;;4.05;;
50367;SDS011;36281;34.132;-118.018;2023-03-14T01:03:46;8.20;;;4.75;;
50367;SDS011;36281;34.132;-118.018;2023-03-14T01:06:19;7.60;;;4.53;;
50367;SDS011;36281;34.132;-118.018;2023-03-14T01:08:49;8.20;;;4.90;;
50367;SDS011;36281;34.132;-118.018;2023-03-14T01:11:21;7.68;;;4.32;;
50367;SDS011;36281;34.132;-118.018;2023-03-14T01:13:52;8.70;;;4.95;;
50367;SDS011;36281;34.132;-118.018;2023-03-14T01:16:22;9.00;;;4.97;;
50367;SDS011;36281;34.132;-118.018;2023-03-14T01:18:52;7.43;;;4.78;;
50367;SDS011;36281;34.132;-118.018;2023-03-14T01:21:23;9.93;;;5.00;;
50367;SDS011;36281;34.132;-118.018;2023-03-14T01:23:53;11.95;;;4.88;;
50367;SDS011;36281;34.132;-118.018;2023-03-14T01:26:25;9.80;;;4.90;;
50367;SDS011;36281;34.132;-118.018;2023-03-14T01:28:57;7.25;;;4.72;;
50367;SDS011;36281;34.132;-118.018;2023-03-14T01:31:26;8.75;;;4.60;;
50367;SDS011;36281;34.132;-118.018;2023-03-14T01:33:55;8.70;;;4.70;;
50367;SDS011;36281;34.132;-118.018;2023-03-14T01:36:24;7.22;;;4.47;;
50367;SDS011;36281;34.132;-118.018;2023-03-14T01:38:56;8.25;;;5.10;;
50367;SDS011;36281;34.132;-118.018;2023-03-14T01:41:26;9.45;;;5.00;;
50367;SDS011;36281;34.132;-118.018;2023-03-14T01:43:55;8.50;;;5.47;;
50367;SDS011;36281;34.132;-118.018;2023-03-14T01:46:26;10.70;;;5.72;;
50367;SDS011;36281;34.132;-118.018;2023-03-14T01:49:02;8.45;;;4.82;;
50367;SDS011;36281;34.132;-118.018;2023-03-14T01:51:39;7.90;;;5.20;;
50367;SDS011;36281;34.132;-118.018;2023-03-14T01:54:14;11.93;;;5.40;;
50367;SDS011;36281;34.132;-118.018;2023-03-14T01:56:48;11.93;;;6.50;;
50367;SDS011;36281;34.132;-118.018;2023-03-14T01:59:21;12.27;;;6.28;;
50367;SDS011;36281;34.132;-118.018;2023-03-14T02:01:50;12.63;;;6.05;;
50367;SDS011;36281;34.132;-118.018;2023-03-14T02:04:19;10.90;;;6.70;;
50367;SDS011;36281;34.132;-118.018;2023-03-14T02:06:50;12.40;;;7.18;;
50367;SDS011;36281;34.132;-118.018;2023-03-14T02:09:24;13.27;;;7.35;;
50367;SDS011;36281;34.132;-118.018;2023-03-14T02:11:55;11.23;;;6.97;;
50367;SDS011;36281;34.132;-118.018;2023-03-14T02:14:29;12.70;;;6.53;;
50367;SDS011;36281;34.132;-118.018;2023-03-14T02:17:00;14.98;;;6.80;;
50367;SDS011;36281;34.132;-118.018;2023-03-14T02:19:34;12.27;;;6.60;;
50367;SDS011;36281;34.132;-118.018;2023-03-14T02:22:14;12.23;;;6.53;;
50367;SDS011;36281;34.132;-118.018;2023-03-14T02:24:46;12.55;;;6.65;;
50367;SDS011;36281;34.132;-118.018;2023-03-14T02:27:27;13.65;;;6.65;;
50367;SDS011;36281;34.132;-118.018;2023-03-14T02:29:57;12.52;;;6.22;;
50367;SDS011;36281;34.132;-118.018;2023-03-14T02:32:29;15.52;;;6.85;;
50367;SDS011;36281;34.132;-118.018;2023-03-14T02:35:00;17.58;;;6.45;;
50367;SDS011;36281;34.132;-118.018;2023-03-14T02:37:35;12.48;;;7.05;;
50367;SDS011;36281;34.132;-118.018;2023-03-14T02:40:09;12.50;;;6.53;;
50367;SDS011;36281;34.132;-118.018;2023-03-14T02:42:40;13.90;;;7.00;;
50367;SDS011;36281;34.132;-118.018;2023-03-14T02:45:32;13.85;;;7.32;;
50367;SDS011;36281;34.132;-118.018;2023-03-14T02:48:11;11.93;;;6.32;;
50367;SDS011;36281;34.132;-118.018;2023-03-14T02:50:43;12.77;;;6.82;;
50367;SDS011;36281;34.132;-118.018;2023-03-14T02:53:16;10.40;;;7.05;;
50367;SDS011;36281;34.132;-118.018;2023-03-14T02:55:47;11.63;;;6.75;;
50367;SDS011;36281;34.132;-118.018;2023-03-14T02:58:18;13.07;;;7.00;;
50367;SDS011;36281;34.132;-118.018;2023-03-14T03:00:47;11.65;;;7.47;;
50367;SDS011;36281;34.132;-118.018;2023-03-14T03:03:17;11.35;;;6.45;;
50367;SDS011;36281;34.132;-118.018;2023-03-14T03:05:47;11.40;;;6.63;;
50367;SDS011;36281;34.132;-118.018;2023-03-14T03:08:18;13.15;;;7.00;;
50367;SDS011;36281;34.132;-118.018;2023-03-14T03:10:48;14.13;;;7.60;;
50367;SDS011;36281;34.132;-118.018;2023-03-14T03:13:19;14.63;;;7.78;;
50367;SDS011;36281;34.132;-118.018;2023-03-14T03:15:48;17.95;;;9.10;;
50367;SDS011;36281;34.132;-118.018;2023-03-14T03:18:17;14.65;;;8.27;;
50367;SDS011;36281;34.132;-118.018;2023-03-14T03:20:47;14.27;;;8.65;;
50367;SDS011;36281;34.132;-118.018;2023-03-14T03:23:16;13.07;;;8.45;;
50367;SDS011;36281;34.132;-118.018;2023-03-14T03:25:47;15.10;;;8.25;;
50367;SDS011;36281;34.132;-118.018;2023-03-14T03:28:19;16.58;;;9.35;;
50367;SDS011;36281;34.132;-118.018;2023-03-14T03:30:48;15.80;;;8.65;;
50367;SDS011;36281;34.132;-118.018;2023-03-14T03:33:17;18.10;;;8.27;;
50367;SDS011;36281;34.132;-118.018;2023-03-14T03:35:46;13.65;;;8.75;;
50367;SDS011;36281;34.132;-118.018;2023-03-14T03:38:17;16.92;;;8.63;;
50367;SDS011;36281;34.132;-118.018;2023-03-14T03:40:47;15.07;;;8.90;;
50367;SDS011;36281;34.132;-118.018;2023-03-14T03:43:16;14.65;;;9.07;;
50367;SDS011;36281;34.132;-118.018;2023-03-14T03:45:47;14.05;;;9.40;;
50367;SDS011;36281;34.132;-118.018;2023-03-14T03:48:16;16.58;;;8.98;;
50367;SDS011;36281;34.132;-118.018;2023-03-14T03:50:45;16.30;;;9.15;;
50367;SDS011;36281;34.132;-118.018;2023-03-14T03:53:14;16.67;;;9.13;;
50367;SDS011;36281;34.132;-118.018;2023-03-14T03:55:59;15.95;;;8.43;;
50367;SDS011;36281;34.132;-118.018;2023-03-14T03:58:30;14.63;;;8.85;;
50367;SDS011;36281;34.132;-118.018;2023-03-14T04:00:59;17.55;;;9.40;;
50367;SDS011;36281;34.132;-118.018;2023-03-14T04:03:29;19.60;;;9.98;;
50367;SDS011;36281;34.132;-118.018;2023-03-14T04:05:58;15.02;;;9.25;;
50367;SDS011;36281;34.132;-118.018;2023-03-14T04:08:28;15.10;;;8.95;;
50367;SDS011;36281;34.132;-118.018;2023-03-14T04:10:57;16.85;;;10.10;;
50367;SDS011;36281;34.132;-118.018;2023-03-14T04:13:28;17.67;;;10.52;;
50367;SDS011;36281;34.132;-118.018;2023-03-14T04:15:59;18.15;;;10.85;;
50367;SDS011;36281;34.132;-118.018;2023-03-14T04:18:28;17.67;;;11.48;;
50367;SDS011;36281;34.132;-118.018;2023-03-14T04:20:58;21.33;;;11.57;;
50367;SDS011;36281;34.132;-118.018;2023-03-14T04:23:27;18.25;;;10.70;;
50367;SDS011;36281;34.132;-118.018;2023-03-14T04:25:56;20.35;;;11.70;;
50367;SDS011;36281;34.132;-118.018;2023-03-14T04:28:24;17.77;;;10.82;;
50367;SDS011;36281;34.132;-118.018;2023-03-14T04:30:55;19.27;;;10.43;;
50367;SDS011;36281;34.132;-118.018;2023-03-14T04:33:24;16.10;;;11.52;;
50367;SDS011;36281;34.132;-118.018;2023-03-14T04:35:53;17.42;;;10.95;;
50367;SDS011;36281;34.132;-118.018;2023-03-14T04:38:23;19.67;;;11.30;;
50367;SDS011;36281;34.132;-118.018;2023-03-14T04:40:52;18.50;;;11.15;;
50367;SDS011;36281;34.132;-118.018;2023-03-14T04:43:21;17.13;;;11.13;;
50367;SDS011;36281;34.132;-118.018;2023-03-14T04:45:50;19.50;;;11.95;;
50367;SDS011;36281;34.132;-118.018;2023-03-14T04:48:21;19.25;;;12.05;;
50367;SDS011;36281;34.132;-118.018;2023-03-14T04:50:50;15.63;;;11.02;;
50367;SDS011;36281;34.132;-118.018;2023-03-14T04:53:19;17.42;;;12.07;;
50367;SDS011;36281;34.132;-118.018;2023-03-14T04:55:48;17.27;;;11.38;;
50367;SDS011;36281;34.132;-118.018;2023-03-14T04:58:19;20.35;;;12.20;;
50367;SDS011;36281;34.132;-118.018;2023-03-14T05:00:48;18.75;;;11.82;;
50367;SDS011;36281;34.132;-118.018;2023-03-14T05:03:17;17.90;;;11.68;;
50367;SDS011;36281;34.132;-118.018;2023-03-14T05:05:48;16.88;;;12.10;;
50367;SDS011;36281;34.132;-118.018;2023-03-14T05:08:17;19.33;;;12.25;;
50367;SDS011;36281;34.132;-118.018;2023-03-14T05:10:51;16.75;;;11.95;;
50367;SDS011;36281;34.132;-118.018;2023-03-14T05:13:21;16.27;;;11.75;;
50367;SDS011;36281;34.132;-118.018;2023-03-14T05:15:50;17.05;;;12.05;;
50367;SDS011;36281;34.132;-118.018;2023-03-14T05:18:19;17.55;;;12.40;;
50367;SDS011;36281;34.132;-118.018;2023-03-14T05:20:51;18.65;;;12.38;;
50367;SDS011;36281;34.132;-118.018;2023-03-14T05:23:21;17.40;;;12.80;;
50367;SDS011;36281;34.132;-118.018;2023-03-14T05:25:50;18.00;;;12.00;;
50367;SDS011;36281;34.132;-118.018;2023-03-14T05:28:19;17.45;;;12.18;;
50367;SDS011;36281;34.132;-118.018;2023-03-14T05:30:48;19.10;;;11.93;;
50367;SDS011;36281;34.132;-118.018;2023-03-14T05:33:17;19.35;;;13.55;;
50367;SDS011;36281;34.132;-118.018;2023-03-14T05:35:46;17.02;;;11.95;;
50367;SDS011;36281;34.132;-118.018;2023-03-14T05:38:17;17.45;;;13.15;;
50367;SDS011;36281;34.132;-118.018;2023-03-14T05:40:46;18.27;;;12.85;;
50367;SDS011;36281;34.132;-118.018;2023-03-14T05:43:15;17.83;;;12.45;;
50367;SDS011;36281;34.132;-118.018;2023-03-14T05:45:44;20.98;;;13.82;;
50367;SDS011;36281;34.132;-118.018;2023-03-14T05:48:13;21.63;;;14.48;;
50367;SDS011;36281;34.132;-118.018;2023-03-14T05:50:42;20.98;;;14.00;;
50367;SDS011;36281;34.132;-118.018;2023-03-14T05:53:11;21.02;;;13.48;;
50367;SDS011;36281;34.132;-118.018;2023-03-14T05:55:42;20.65;;;13.57;;
50367;SDS011;36281;34.132;-118.018;2023-03-14T05:58:11;20.58;;;13.70;;
50367;SDS011;36281;34.132;-118.018;2023-03-14T06:00:40;21.88;;;15.30;;
50367;SDS011;36281;34.132;-118.018;2023-03-14T06:03:09;22.98;;;15.57;;
50367;SDS011;36281;34.132;-118.018;2023-03-14T06:05:38;23.25;;;15.27;;
50367;SDS011;36281;34.132;-118.018;2023-03-14T06:08:08;20.15;;;14.88;;
50367;SDS011;36281;34.132;-118.018;2023-03-14T06:10:37;20.40;;;15.23;;
50367;SDS011;36281;34.132;-118.018;2023-03-14T06:13:07;21.88;;;15.40;;
50367;SDS011;36281;34.132;-118.018;2023-03-14T06:15:36;22.95;;;14.70;;
50367;SDS011;36281;34.132;-118.018;2023-03-14T06:18:05;22.90;;;13.48;;
50367;SDS011;36281;34.132;-118.018;2023-03-14T06:20:35;22.80;;;15.00;;
50367;SDS011;36281;34.132;-118.018;2023-03-14T06:23:07;20.65;;;13.77;;
50367;SDS011;36281;34.132;-118.018;2023-03-14T06:25:36;20.15;;;13.32;;
50367;SDS011;36281;34.132;-118.018;2023-03-14T06:28:07;21.73;;;13.70;;
50367;SDS011;36281;34.132;-118.018;2023-03-14T06:30:37;23.75;;;14.00;;
50367;SDS011;36281;34.132;-118.018;2023-03-14T06:33:06;20.15;;;13.73;;
50367;SDS011;36281;34.132;-118.018;2023-03-14T06:35:35;21.55;;;14.13;;
50367;SDS011;36281;34.132;-118.018;2023-03-14T06:38:04;18.83;;;13.40;;
50367;SDS011;36281;34.132;-118.018;2023-03-14T06:40:33;22.40;;;14.45;;
50367;SDS011;36281;34.132;-118.018;2023-03-14T06:43:02;26.27;;;16.58;;
50367;SDS011;36281;34.132;-118.018;2023-03-14T06:45:33;23.15;;;15.75;;
50367;SDS011;36281;34.132;-118.018;2023-03-14T06:48:02;24.80;;;16.13;;
50367;SDS011;36281;34.132;-118.018;2023-03-14T06:50:31;25.48;;;16.60;;
50367;SDS011;36281;34.132;-118.018;2023-03-14T06:53:00;27.05;;;16.88;;
50367;SDS011;36281;34.132;-118.018;2023-03-14T06:55:29;27.45;;;17.58;;
50367;SDS011;36281;34.132;-118.018;2023-03-14T06:57:58;26.90;;;17.45;;
50367;SDS011;36281;34.132;-118.018;2023-03-14T07:00:27;28.45;;;17.98;;
50367;SDS011;36281;34.132;-118.018;2023-03-14T07:02:58;27.63;;;18.15;;
50367;SDS011;36281;34.132;-118.018;2023-03-14T07:05:27;30.05;;;18.35;;
50367;SDS011;36281;34.132;-118.018;2023-03-14T07:07:56;32.15;;;19.15;;
50367;SDS011;36281;34.132;-118.018;2023-03-14T07:10:25;27.58;;;17.70;;
50367;SDS011;36281;34.132;-118.018;2023-03-14T07:12:54;25.80;;;17.20;;
50367;SDS011;36281;34.132;-118.018;2023-03-14T07:15:23;31.75;;;18.45;;
50367;SDS011;36281;34.132;-118.018;2023-03-14T07:17:52;29.20;;;19.13;;
50367;SDS011;36281;34.132;-118.018;2023-03-14T07:20:23;31.48;;;18.48;;
50367;SDS011;36281;34.132;-118.018;2023-03-14T07:22:52;32.17;;;19.90;;
50367;SDS011;36281;34.132;-118.018;2023-03-14T07:25:22;29.60;;;19.98;;
50367;SDS011;36281;34.132;-118.018;2023-03-14T07:27:51;32.33;;;20.15;;
50367;SDS011;36281;34.132;-118.018;2023-03-14T07:30:20;29.83;;;19.63;;
50367;SDS011;36281;34.132;-118.018;2023-03-14T07:32:49;33.00;;;20.45;;
50367;SDS011;36281;34.132;-118.018;2023-03-14T07:35:18;31.70;;;19.92;;
50367;SDS011;36281;34.132;-118.018;2023-03-14T07:37:49;31.90;;;20.95;;
50367;SDS011;36281;34.132;-118.018;2023-03-14T07:40:18;32.33;;;21.90;;
50367;SDS011;36281;34.132;-118.018;2023-03-14T07:42:47;30.27;;;20.92;;
50367;SDS011;36281;34.132;-118.018;2023-03-14T07:45:17;32.50;;;21.70;;
50367;SDS011;36281;34.132;-118.018;2023-03-14T07:47:46;34.03;;;21.30;;
50367;SDS011;36281;34.132;-118.018;2023-03-14T07:50:15;32.03;;;22.02;;
50367;SDS011;36281;34.132;-118.018;2023-03-14T07:52:44;35.92;;;22.55;;
50367;SDS011;36281;34.132;-118.018;2023-03-14T07:55:15;35.17;;;22.27;;
50367;SDS011;36281;34.132;-118.018;2023-03-14T07:57:44;32.40;;;22.48;;
50367;SDS011;36281;34.132;-118.018;2023-03-14T08:00:14;35.55;;;22.88;;
50367;SDS011;36281;34.132;-118.018;2023-03-14T08:02:43;34.60;;;22.52;;
50367;SDS011;36281;34.132;-118.018;2023-03-14T08:05:12;34.47;;;22.40;;
50367;SDS011;36281;34.132;-118.018;2023-03-14T08:07:41;31.50;;;20.98;;
50367;SDS011;36281;34.132;-118.018;2023-03-14T08:10:10;34.63;;;22.05;;
50367;SDS011;36281;34.132;-118.018;2023-03-14T08:12:45;35.80;;;22.88;;
50367;SDS011;36281;34.132;-118.018;2023-03-14T08:15:14;36.05;;;22.42;;
50367;SDS011;36281;34.132;-118.018;2023-03-14T08:17:43;37.03;;;22.27;;
50367;SDS011;36281;34.132;-118.018;2023-03-14T08:20:11;35.05;;;21.77;;
50367;SDS011;36281;34.132;-118.018;2023-03-14T08:22:40;33.80;;;21.38;;
50367;SDS011;36281;34.132;-118.018;2023-03-14T08:25:09;33.97;;;21.05;;
50367;SDS011;36281;34.132;-118.018;2023-03-14T08:27:39;38.08;;;21.85;;
50367;SDS011;36281;34.132;-118.018;2023-03-14T08:30:11;35.80;;;22.02;;
50367;SDS011;36281;34.132;-118.018;2023-03-14T08:32:42;28.80;;;19.60;;
50367;SDS011;36281;34.132;-118.018;2023-03-14T08:35:11;35.35;;;21.65;;
50367;SDS011;36281;34.132;-118.018;2023-03-14T08:37:41;38.40;;;22.77;;
50367;SDS011;36281;34.132;-118.018;2023-03-14T08:40:10;36.95;;;22.00;;
50367;SDS011;36281;34.132;-118.018;2023-03-14T08:42:40;31.33;;;21.67;;
50367;SDS011;36281;34.132;-118.018;2023-03-14T08:45:12;36.88;;;22.40;;
50367;SDS011;36281;34.132;-118.018;2023-03-14T08:47:44;39.72;;;22.83;;
50367;SDS011;36281;34.132;-118.018;2023-03-14T08:50:13;35.05;;;21.48;;
50367;SDS011;36281;34.132;-118.018;2023-03-14T08:52:42;34.70;;;22.77;;
50367;SDS011;36281;34.132;-118.018;2023-03-14T08:55:11;34.30;;;22.55;;
50367;SDS011;36281;34.132;-118.018;2023-03-14T08:57:41;37.10;;;22.60;;
50367;SDS011;36281;34.132;-118.018;2023-03-14T09:00:10;36.25;;;22.55;;
50367;SDS011;36281;34.132;-118.018;2023-03-14T09:02:43;39.72;;;24.25;;
50367;SDS011;36281;34.132;-118.018;2023-03-14T09:05:12;37.83;;;22.95;;
50367;SDS011;36281;34.132;-118.018;2023-03-14T09:07:41;36.60;;;23.27;;
50367;SDS011;36281;34.132;-118.018;2023-03-14T09:10:10;38.28;;;23.50;;
50367;SDS011;36281;34.132;-118.018;2023-03-14T09:12:40;36.22;;;23.75;;
50367;SDS011;36281;34.132;-118.018;2023-03-14T09:15:09;36.50;;;24.17;;
50367;SDS011;36281;34.132;-118.018;2023-03-14T09:17:40;41.88;;;24.83;;
50367;SDS011;36281;34.132;-118.018;2023-03-14T09:20:11;38.08;;;23.05;;
50367;SDS011;36281;34.132;-118.018;2023-03-14T09:22:41;32.92;;;21.88;;
50367;SDS011;36281;34.132;-118.018;2023-03-14T09:25:11;34.92;;;23.45;;
50367;SDS011;36281;34.132;-118.018;2023-03-14T09:27:40;39.03;;;24.38;;
50367;SDS011;36281;34.132;-118.018;2023-03-14T09:30:09;37.78;;;24.17;;
50367;SDS011;36281;34.132;-118.018;2023-03-14T09:32:41;43.38;;;24.15;;
50367;SDS011;36281;34.132;-118.018;2023-03-14T09:35:10;41.80;;;25.25;;
50367;SDS011;36281;34.132;-118.018;2023-03-14T09:37:39;39.58;;;23.30;;
50367;SDS011;36281;34.132;-118.018;2023-03-14T09:40:10;39.47;;;22.27;;
50367;SDS011;36281;34.132;-118.018;2023-03-14T09:42:41;38.53;;;23.63;;
50367;SDS011;36281;34.132;-118.018;2023-03-14T09:45:11;38.78;;;22.63;;
50367;SDS011;36281;34.132;-118.018;2023-03-14T09:47:45;32.30;;;22.27;;
50367;SDS011;36281;34.132;-118.018;2023-03-14T09:50:25;38.58;;;23.30;;
50367;SDS011;36281;34.132;-118.018;2023-03-14T09:52:59;39.10;;;22.90;;
50367;SDS011;36281;34.132;-118.018;2023-03-14T09:55:32;35.85;;;22.17;;
50367;SDS011;36281;34.132;-118.018;2023-03-14T09:58:03;35.22;;;22.15;;
50367;SDS011;36281;34.132;-118.018;2023-03-14T10:00:39;36.75;;;22.60;;
50367;SDS011;36281;34.132;-118.018;2023-03-14T10:03:24;36.88;;;21.13;;
50367;SDS011;36281;34.132;-118.018;2023-03-14T10:05:57;36.03;;;21.50;;
50367;SDS011;36281;34.132;-118.018;2023-03-14T10:08:26;35.40;;;20.90;;
50367;SDS011;36281;34.132;-118.018;2023-03-14T10:10:55;33.25;;;20.63;;
50367;SDS011;36281;34.132;-118.018;2023-03-14T10:13:25;35.65;;;22.05;;
50367;SDS011;36281;34.132;-118.018;2023-03-14T10:15:59;33.78;;;21.33;;
50367;SDS011;36281;34.132;-118.018;2023-03-14T10:18:32;31.13;;;20.95;;
50367;SDS011;36281;34.132;-118.018;2023-03-14T10:21:03;37.42;;;22.08;;
50367;SDS011;36281;34.132;-118.018;2023-03-14T10:23:34;38.35;;;22.15;;
50367;SDS011;36281;34.132;-118.018;2023-03-14T10:26:06;33.72;;;21.05;;
50367;SDS011;36281;34.132;-118.018;2023-03-14T10:28:41;34.47;;;21.08;;
50367;SDS011;36281;34.132;-118.018;2023-03-14T10:31:12;38.47;;;22.00;;
50367;SDS011;36281;34.132;-118.018;2023-03-14T10:33:43;36.60;;;21.80;;
50367;SDS011;36281;34.132;-118.018;2023-03-14T10:36:27;39.15;;;20.75;;
50367;SDS011;36281;34.132;-118.018;2023-03-14T10:38:58;36.67;;;21.20;;
50367;SDS011;36281;34.132;-118.018;2023-03-14T10:41:50;37.63;;;21.85;;
50367;SDS011;36281;34.132;-118.018;2023-03-14T10:44:23;34.70;;;20.73;;
50367;SDS011;36281;34.132;-118.018;2023-03-14T10:46:56;33.40;;;19.67;;
50367;SDS011;36281;34.132;-118.018;2023-03-14T10:49:30;31.23;;;19.45;;
50367;SDS011;36281;34.132;-118.018;2023-03-14T10:52:01;35.22;;;18.95;;
50367;SDS011;36281;34.132;-118.018;2023-03-14T10:54:41;30.45;;;18.52;;
50367;SDS011;36281;34.132;-118.018;2023-03-14T10:57:14;25.58;;;16.25;;
50367;SDS011;36281;34.132;-118.018;2023-03-14T10:59:43;22.38;;;13.23;;
50367;SDS011;36281;34.132;-118.018;2023-03-14T11:02:21;21.38;;;13.38;;
50367;SDS011;36281;34.132;-118.018;2023-03-14T11:05:23;20.83;;;13.52;;
50367;SDS011;36281;34.132;-118.018;2023-03-14T11:07:59;21.98;;;12.77;;
50367;SDS011;36281;34.132;-118.018;2023-03-14T11:10:34;20.57;;;12.23;;
50367;SDS011;36281;34.132;-118.018;2023-03-14T11:13:17;21.50;;;12.80;;
50367;SDS011;36281;34.132;-118.018;2023-03-14T11:15:57;20.25;;;12.43;;
50367;SDS011;36281;34.132;-118.018;2023-03-14T11:18:53;20.52;;;12.38;;
50367;SDS011;36281;34.132;-118.018;2023-03-14T11:21:39;21.10;;;11.77;;
50367;SDS011;36281;34.132;-118.018;2023-03-14T11:24:21;21.85;;;12.63;;
50367;SDS011;36281;34.132;-118.018;2023-03-14T11:26:58;23.42;;;14.25;;
50367;SDS011;36281;34.132;-118.018;2023-03-14T11:29:35;26.90;;;15.10;;
50367;SDS011;36281;34.132;-118.018;2023-03-14T11:32:11;26.52;;;16.45;;
50367;SDS011;36281;34.132;-118.018;2023-03-14T11:34:43;24.17;;;16.10;;
50367;SDS011;36281;34.132;-118.018;2023-03-14T11:37:22;30.88;;;17.77;;
50367;SDS011;36281;34.132;-118.018;2023-03-14T11:39:56;30.50;;;17.60;;
50367;SDS011;36281;34.132;-118.018;2023-03-14T11:42:32;28.15;;;16.85;;
50367;SDS011;36281;34.132;-118.018;2023-03-14T11:45:01;28.67;;;17.00;;
50367;SDS011;36281;34.132;-118.018;2023-03-14T11:47:32;26.38;;;18.05;;
50367;SDS011;36281;34.132;-118.018;2023-03-14T11:50:07;29.25;;;17.80;;
50367;SDS011;36281;34.132;-118.018;2023-03-14T11:52:46;37.78;;;19.20;;
50367;SDS011;36281;34.132;-118.018;2023-03-14T11:57:56;32.70;;;19.30;;
50367;SDS011;36281;34.132;-118.018;2023-03-14T12:00:29;31.05;;;17.85;;
50367;SDS011;36281;34.132;-118.018;2023-03-14T12:02:59;27.98;;;17.77;;
50367;SDS011;36281;34.132;-118.018;2023-03-14T12:05:42;34.47;;;19.20;;
50367;SDS011;36281;34.132;-118.018;2023-03-14T12:08:39;35.38;;;19.48;;
50367;SDS011;36281;34.132;-118.018;2023-03-14T12:11:20;29.75;;;18.48;;
50367;SDS011;36281;34.132;-118.018;2023-03-14T12:13:53;34.70;;;20.10;;
50367;SDS011;36281;34.132;-118.018;2023-03-14T12:16:35;31.45;;;19.73;;
50367;SDS011;36281;34.132;-118.018;2023-03-14T12:19:14;32.83;;;18.00;;
50367;SDS011;36281;34.132;-118.018;2023-03-14T12:21:55;32.17;;;17.73;;
50367;SDS011;36281;34.132;-118.018;2023-03-14T12:24:30;36.05;;;19.73;;
50367;SDS011;36281;34.132;-118.018;2023-03-14T12:27:02;29.83;;;18.55;;
50367;SDS011;36281;34.132;-118.018;2023-03-14T12:29:32;34.58;;;19.77;;
50367;SDS011;36281;34.132;-118.018;2023-03-14T12:32:22;27.20;;;17.85;;
50367;SDS011;36281;34.132;-118.018;2023-03-14T12:34:52;29.98;;;19.13;;
50367;SDS011;36281;34.132;-118.018;2023-03-14T12:37:26;28.73;;;17.98;;
50367;SDS011;36281;34.132;-118.018;2023-03-14T12:40:15;30.25;;;19.02;;
50367;SDS011;36281;34.132;-118.018;2023-03-14T12:45:26;30.23;;;19.00;;
50367;SDS011;36281;34.132;-118.018;2023-03-14T12:50:45;31.15;;;18.33;;
50367;SDS011;36281;34.132;-118.018;2023-03-14T12:53:38;31.98;;;19.30;;
50367;SDS011;36281;34.132;-118.018;2023-03-14T12:56:28;35.63;;;19.98;;
50367;SDS011;36281;34.132;-118.018;2023-03-14T12:59:15;37.92;;;19.42;;
50367;SDS011;36281;34.132;-118.018;2023-03-14T13:01:58;32.03;;;18.38;;
50367;SDS011;36281;34.132;-118.018;2023-03-14T13:04:32;30.83;;;18.58;;
50367;SDS011;36281;34.132;-118.018;2023-03-14T13:07:10;34.35;;;18.88;;
50367;SDS011;36281;34.132;-118.018;2023-03-14T13:12:37;32.90;;;18.92;;
50367;SDS011;36281;34.132;-118.018;2023-03-14T13:15:17;33.45;;;20.30;;
50367;SDS011;36281;34.132;-118.018;2023-03-14T13:17:51;30.73;;;18.70;;
50367;SDS011;36281;34.132;-118.018;2023-03-14T13:20:24;31.02;;;19.85;;
50367;SDS011;36281;34.132;-118.018;2023-03-14T13:22:58;36.67;;;19.73;;
50367;SDS011;36281;34.132;-118.018;2023-03-14T13:25:29;32.47;;;18.17;;
50367;SDS011;36281;34.132;-118.018;2023-03-14T13:28:02;26.67;;;17.05;;
50367;SDS011;36281;34.132;-118.018;2023-03-14T13:30:41;25.45;;;15.70;;
50367;SDS011;36281;34.132;-118.018;2023-03-14T13:33:12;27.77;;;16.85;;
50367;SDS011;36281;34.132;-118.018;2023-03-14T13:35:44;27.40;;;15.48;;
50367;SDS011;36281;34.132;-118.018;2023-03-14T13:38:18;27.60;;;15.65;;
50367;SDS011;36281;34.132;-118.018;2023-03-14T13:40:48;26.10;;;15.70;;
50367;SDS011;36281;34.132;-118.018;2023-03-14T13:43:24;25.08;;;16.23;;
50367;SDS011;36281;34.132;-118.018;2023-03-14T13:45:56;24.90;;;14.93;;
50367;SDS011;36281;34.132;-118.018;2023-03-14T13:48:29;24.95;;;14.75;;
50367;SDS011;36281;34.132;-118.018;2023-03-14T13:51:01;25.27;;;15.07;;
50367;SDS011;36281;34.132;-118.018;2023-03-14T13:53:42;25.38;;;15.38;;
50367;SDS011;36281;34.132;-118.018;2023-03-14T13:56:13;26.17;;;15.35;;
50367;SDS011;36281;34.132;-118.018;2023-03-14T13:58:44;23.25;;;14.50;;
50367;SDS011;36281;34.132;-118.018;2023-03-14T14:01:14;23.90;;;14.75;;
50367;SDS011;36281;34.132;-118.018;2023-03-14T14:03:46;27.73;;;15.90;;
50367;SDS011;36281;34.132;-118.018;2023-03-14T14:09:10;23.00;;;14.93;;
50367;SDS011;36281;34.132;-118.018;2023-03-14T14:11:42;27.63;;;15.07;;
50367;SDS011;36281;34.132;-118.018;2023-03-14T14:14:35;27.00;;;16.08;;
50367;SDS011;36281;34.132;-118.018;2023-03-14T14:17:09;23.38;;;14.45;;
50367;SDS011;36281;34.132;-118.018;2023-03-14T14:19:40;22.90;;;13.68;;
50367;SDS011;36281;34.132;-118.018;2023-03-14T14:22:10;24.50;;;13.55;;
50367;SDS011;36281;34.132;-118.018;2023-03-14T14:24:40;22.48;;;13.40;;
50367;SDS011;36281;34.132;-118.018;2023-03-14T14:27:12;25.27;;;14.43;;
50367;SDS011;36281;34.132;-118.018;2023-03-14T14:29:55;24.92;;;14.18;;